sensor_id;sensor_type;location;lat;lon;timestamp;P1;durP1;ratioP1;P2;durP2;ratioP2
62633;SDS011;48704;50.534;6.442;2023-04-25T00:00:09;14.73;;;9.10;;
62633;SDS011;48704;50.534;6.442;2023-04-25T00:02:35;15.90;;;9.98;;
62633;SDS011;48704;50.534;6.442;2023-04-25T00:05:01;18.05;;;9.45;;
62633;SDS011;48704;50.534;6.442;2023-04-25T00:07:28;20.35;;;10.63;;
62633;SDS011;48704;50.534;6.442;2023-04-25T00:09:53;20.98;;;11.25;;
62633;SDS011;48704;50.534;6.442;2023-04-25T00:12:18;19.40;;;10.02;;
62633;SDS011;48704;50.534;6.442;2023-04-25T00:14:44;19.80;;;9.98;;
62633;SDS011;48704;50.534;6.442;2023-04-25T00:17:10;18.25;;;10.57;;
62633;SDS011;48704;50.534;6.442;2023-04-25T00:19:36;16.73;;;10.52;;
62633;SDS011;48704;50.534;6.442;2023-04-25T00:22:02;15.13;;;9.50;;
62633;SDS011;48704;50.534;6.442;2023-04-25T00:24:28;18.70;;;10.05;;
62633;SDS011;48704;50.534;6.442;2023-04-25T00:26:54;20.70;;;10.48;;
62633;SDS011;48704;50.534;6.442;2023-04-25T00:29:19;19.00;;;10.38;;
62633;SDS011;48704;50.534;6.442;2023-04-25T00:31:44;16.73;;;9.73;;
62633;SDS011;48704;50.534;6.442;2023-04-25T00:34:09;18.42;;;9.95;;
62633;SDS011;48704;50.534;6.442;2023-04-25T00:36:35;16.67;;;10.00;;
62633;SDS011;48704;50.534;6.442;2023-04-25T00:39:01;17.73;;;9.48;;
62633;SDS011;48704;50.534;6.442;2023-04-25T00:41:26;16.92;;;10.30;;
62633;SDS011;48704;50.534;6.442;2023-04-25T00:43:52;22.65;;;10.70;;
62633;SDS011;48704;50.534;6.442;2023-04-25T00:46:18;19.27;;;9.93;;
62633;SDS011;48704;50.534;6.442;2023-04-25T00:48:44;18.95;;;10.50;;
62633;SDS011;48704;50.534;6.442;2023-04-25T00:51:09;14.35;;;8.90;;
62633;SDS011;48704;50.534;6.442;2023-04-25T00:53:40;19.67;;;9.98;;
62633;SDS011;48704;50.534;6.442;2023-04-25T00:56:05;16.02;;;9.10;;
62633;SDS011;48704;50.534;6.442;2023-04-25T00:58:31;21.63;;;8.90;;
62633;SDS011;48704;50.534;6.442;2023-04-25T01:00:57;20.52;;;10.00;;
62633;SDS011;48704;50.534;6.442;2023-04-25T01:03:22;23.25;;;9.73;;
62633;SDS011;48704;50.534;6.442;2023-04-25T01:05:47;17.42;;;8.63;;
62633;SDS011;48704;50.534;6.442;2023-04-25T01:08:13;21.42;;;9.25;;
62633;SDS011;48704;50.534;6.442;2023-04-25T01:10:39;16.55;;;9.05;;
62633;SDS011;48704;50.534;6.442;2023-04-25T01:13:04;20.13;;;9.10;;
62633;SDS011;48704;50.534;6.442;2023-04-25T01:15:30;22.05;;;9.27;;
62633;SDS011;48704;50.534;6.442;2023-04-25T01:17:55;16.33;;;7.95;;
62633;SDS011;48704;50.534;6.442;2023-04-25T01:20:22;20.83;;;8.88;;
62633;SDS011;48704;50.534;6.442;2023-04-25T01:22:51;16.60;;;8.43;;
62633;SDS011;48704;50.534;6.442;2023-04-25T01:25:17;18.38;;;9.25;;
62633;SDS011;48704;50.534;6.442;2023-04-25T01:27:43;14.55;;;8.32;;
62633;SDS011;48704;50.534;6.442;2023-04-25T01:30:09;19.13;;;8.48;;
62633;SDS011;48704;50.534;6.442;2023-04-25T01:32:34;13.65;;;8.63;;
62633;SDS011;48704;50.534;6.442;2023-04-25T01:35:04;16.27;;;8.82;;
62633;SDS011;48704;50.534;6.442;2023-04-25T01:37:34;17.80;;;8.38;;
62633;SDS011;48704;50.534;6.442;2023-04-25T01:40:03;14.27;;;7.70;;
62633;SDS011;48704;50.534;6.442;2023-04-25T01:42:30;15.23;;;7.80;;
62633;SDS011;48704;50.534;6.442;2023-04-25T01:44:56;20.05;;;8.45;;
62633;SDS011;48704;50.534;6.442;2023-04-25T01:47:21;16.92;;;8.23;;
62633;SDS011;48704;50.534;6.442;2023-04-25T01:49:46;15.40;;;8.20;;
62633;SDS011;48704;50.534;6.442;2023-04-25T01:52:12;19.80;;;9.73;;
62633;SDS011;48704;50.534;6.442;2023-04-25T01:54:37;15.13;;;7.72;;
62633;SDS011;48704;50.534;6.442;2023-04-25T01:57:03;17.52;;;8.65;;
62633;SDS011;48704;50.534;6.442;2023-04-25T01:59:28;19.00;;;9.73;;
62633;SDS011;48704;50.534;6.442;2023-04-25T02:01:53;21.52;;;9.48;;
62633;SDS011;48704;50.534;6.442;2023-04-25T02:04:19;20.10;;;8.48;;
62633;SDS011;48704;50.534;6.442;2023-04-25T02:06:44;20.27;;;9.77;;
62633;SDS011;48704;50.534;6.442;2023-04-25T02:09:09;19.20;;;10.13;;
62633;SDS011;48704;50.534;6.442;2023-04-25T02:11:35;22.33;;;9.35;;
62633;SDS011;48704;50.534;6.442;2023-04-25T02:14:00;18.35;;;9.40;;
62633;SDS011;48704;50.534;6.442;2023-04-25T02:16:25;22.65;;;9.98;;
62633;SDS011;48704;50.534;6.442;2023-04-25T02:18:51;24.48;;;9.55;;
62633;SDS011;48704;50.534;6.442;2023-04-25T02:21:17;20.02;;;9.30;;
62633;SDS011;48704;50.534;6.442;2023-04-25T02:23:43;24.05;;;10.07;;
62633;SDS011;48704;50.534;6.442;2023-04-25T02:26:10;17.98;;;8.50;;
62633;SDS011;48704;50.534;6.442;2023-04-25T02:28:38;28.20;;;11.07;;
62633;SDS011;48704;50.534;6.442;2023-04-25T02:31:03;20.08;;;9.38;;
62633;SDS011;48704;50.534;6.442;2023-04-25T02:33:28;14.13;;;7.32;;
62633;SDS011;48704;50.534;6.442;2023-04-25T02:35:54;20.27;;;9.75;;
62633;SDS011;48704;50.534;6.442;2023-04-25T02:38:19;16.75;;;8.60;;
62633;SDS011;48704;50.534;6.442;2023-04-25T02:40:44;18.90;;;8.70;;
62633;SDS011;48704;50.534;6.442;2023-04-25T02:43:09;18.38;;;8.75;;
62633;SDS011;48704;50.534;6.442;2023-04-25T02:45:35;21.52;;;8.63;;
62633;SDS011;48704;50.534;6.442;2023-04-25T02:48:00;25.75;;;7.63;;
62633;SDS011;48704;50.534;6.442;2023-04-25T02:50:27;19.38;;;8.40;;
62633;SDS011;48704;50.534;6.442;2023-04-25T02:52:52;18.48;;;8.27;;
62633;SDS011;48704;50.534;6.442;2023-04-25T02:55:17;16.35;;;7.32;;
62633;SDS011;48704;50.534;6.442;2023-04-25T02:57:43;16.10;;;8.18;;
62633;SDS011;48704;50.534;6.442;2023-04-25T03:00:08;20.52;;;7.38;;
62633;SDS011;48704;50.534;6.442;2023-04-25T03:02:33;19.73;;;7.43;;
62633;SDS011;48704;50.534;6.442;2023-04-25T03:04:59;21.05;;;8.60;;
62633;SDS011;48704;50.534;6.442;2023-04-25T03:07:24;21.98;;;8.35;;
62633;SDS011;48704;50.534;6.442;2023-04-25T03:09:50;22.60;;;8.25;;
62633;SDS011;48704;50.534;6.442;2023-04-25T03:12:15;21.35;;;7.32;;
62633;SDS011;48704;50.534;6.442;2023-04-25T03:14:40;17.83;;;7.18;;
62633;SDS011;48704;50.534;6.442;2023-04-25T03:17:06;18.67;;;8.05;;
62633;SDS011;48704;50.534;6.442;2023-04-25T03:19:31;16.48;;;7.40;;
62633;SDS011;48704;50.534;6.442;2023-04-25T03:21:56;17.25;;;7.40;;
62633;SDS011;48704;50.534;6.442;2023-04-25T03:24:22;25.25;;;8.18;;
62633;SDS011;48704;50.534;6.442;2023-04-25T03:26:47;18.42;;;6.68;;
62633;SDS011;48704;50.534;6.442;2023-04-25T03:29:12;15.80;;;6.28;;
62633;SDS011;48704;50.534;6.442;2023-04-25T03:31:37;21.42;;;7.18;;
62633;SDS011;48704;50.534;6.442;2023-04-25T03:34:03;17.42;;;7.40;;
62633;SDS011;48704;50.534;6.442;2023-04-25T03:36:28;19.85;;;7.43;;
62633;SDS011;48704;50.534;6.442;2023-04-25T03:38:53;18.23;;;6.82;;
62633;SDS011;48704;50.534;6.442;2023-04-25T03:41:18;19.48;;;6.82;;
62633;SDS011;48704;50.534;6.442;2023-04-25T03:43:44;20.67;;;7.32;;
62633;SDS011;48704;50.534;6.442;2023-04-25T03:46:09;16.13;;;7.30;;
62633;SDS011;48704;50.534;6.442;2023-04-25T03:48:34;15.45;;;7.38;;
62633;SDS011;48704;50.534;6.442;2023-04-25T03:51:00;19.83;;;6.25;;
62633;SDS011;48704;50.534;6.442;2023-04-25T03:53:25;16.88;;;6.18;;
62633;SDS011;48704;50.534;6.442;2023-04-25T03:55:50;20.80;;;7.47;;
62633;SDS011;48704;50.534;6.442;2023-04-25T03:58:16;15.50;;;7.57;;
62633;SDS011;48704;50.534;6.442;2023-04-25T04:00:41;21.45;;;7.50;;
62633;SDS011;48704;50.534;6.442;2023-04-25T04:03:07;16.00;;;6.35;;
62633;SDS011;48704;50.534;6.442;2023-04-25T04:05:32;19.20;;;6.90;;
62633;SDS011;48704;50.534;6.442;2023-04-25T04:07:57;18.90;;;6.70;;
62633;SDS011;48704;50.534;6.442;2023-04-25T04:10:22;14.88;;;5.97;;
62633;SDS011;48704;50.534;6.442;2023-04-25T04:12:48;14.32;;;5.95;;
62633;SDS011;48704;50.534;6.442;2023-04-25T04:15:13;20.00;;;5.25;;
62633;SDS011;48704;50.534;6.442;2023-04-25T04:17:39;12.18;;;5.72;;
62633;SDS011;48704;50.534;6.442;2023-04-25T04:20:04;15.18;;;5.38;;
62633;SDS011;48704;50.534;6.442;2023-04-25T04:22:31;14.70;;;5.82;;
62633;SDS011;48704;50.534;6.442;2023-04-25T04:24:56;10.23;;;5.35;;
62633;SDS011;48704;50.534;6.442;2023-04-25T04:27:21;10.15;;;4.70;;
62633;SDS011;48704;50.534;6.442;2023-04-25T04:29:47;14.90;;;5.57;;
62633;SDS011;48704;50.534;6.442;2023-04-25T04:32:13;15.77;;;5.72;;
62633;SDS011;48704;50.534;6.442;2023-04-25T04:34:39;13.25;;;5.03;;
62633;SDS011;48704;50.534;6.442;2023-04-25T04:37:06;12.18;;;4.97;;
62633;SDS011;48704;50.534;6.442;2023-04-25T04:39:32;10.82;;;4.43;;
62633;SDS011;48704;50.534;6.442;2023-04-25T04:41:57;15.60;;;4.43;;
62633;SDS011;48704;50.534;6.442;2023-04-25T04:44:23;16.17;;;5.28;;
62633;SDS011;48704;50.534;6.442;2023-04-25T04:46:48;15.07;;;5.88;;
62633;SDS011;48704;50.534;6.442;2023-04-25T04:49:13;11.95;;;4.57;;
62633;SDS011;48704;50.534;6.442;2023-04-25T04:51:39;12.77;;;4.55;;
62633;SDS011;48704;50.534;6.442;2023-04-25T04:54:05;16.63;;;4.35;;
62633;SDS011;48704;50.534;6.442;2023-04-25T04:56:31;14.15;;;3.97;;
62633;SDS011;48704;50.534;6.442;2023-04-25T04:58:57;12.35;;;4.43;;
62633;SDS011;48704;50.534;6.442;2023-04-25T05:01:23;9.68;;;4.28;;
62633;SDS011;48704;50.534;6.442;2023-04-25T05:03:49;16.38;;;4.38;;
62633;SDS011;48704;50.534;6.442;2023-04-25T05:06:14;10.57;;;4.28;;
62633;SDS011;48704;50.534;6.442;2023-04-25T05:08:41;15.10;;;4.55;;
62633;SDS011;48704;50.534;6.442;2023-04-25T05:11:06;14.18;;;4.10;;
62633;SDS011;48704;50.534;6.442;2023-04-25T05:13:31;11.73;;;4.20;;
62633;SDS011;48704;50.534;6.442;2023-04-25T05:15:56;10.80;;;4.07;;
62633;SDS011;48704;50.534;6.442;2023-04-25T05:18:21;10.07;;;4.20;;
62633;SDS011;48704;50.534;6.442;2023-04-25T05:20:47;10.18;;;4.53;;
62633;SDS011;48704;50.534;6.442;2023-04-25T05:23:12;14.15;;;4.28;;
62633;SDS011;48704;50.534;6.442;2023-04-25T05:25:37;17.00;;;4.50;;
62633;SDS011;48704;50.534;6.442;2023-04-25T05:28:03;14.98;;;5.15;;
62633;SDS011;48704;50.534;6.442;2023-04-25T05:30:28;13.65;;;4.57;;
62633;SDS011;48704;50.534;6.442;2023-04-25T05:32:53;19.10;;;5.38;;
62633;SDS011;48704;50.534;6.442;2023-04-25T05:35:19;18.77;;;5.40;;
62633;SDS011;48704;50.534;6.442;2023-04-25T05:37:44;12.23;;;4.55;;
62633;SDS011;48704;50.534;6.442;2023-04-25T05:40:09;12.85;;;3.92;;
62633;SDS011;48704;50.534;6.442;2023-04-25T05:42:35;15.52;;;4.13;;
62633;SDS011;48704;50.534;6.442;2023-04-25T05:45:00;18.83;;;4.60;;
62633;SDS011;48704;50.534;6.442;2023-04-25T05:47:26;13.98;;;3.78;;
62633;SDS011;48704;50.534;6.442;2023-04-25T05:49:51;13.25;;;4.25;;
62633;SDS011;48704;50.534;6.442;2023-04-25T05:52:17;9.88;;;4.13;;
62633;SDS011;48704;50.534;6.442;2023-04-25T05:54:43;16.60;;;4.00;;
62633;SDS011;48704;50.534;6.442;2023-04-25T05:57:08;16.92;;;4.22;;
62633;SDS011;48704;50.534;6.442;2023-04-25T05:59:33;10.95;;;3.20;;
62633;SDS011;48704;50.534;6.442;2023-04-25T06:01:59;16.73;;;4.05;;
62633;SDS011;48704;50.534;6.442;2023-04-25T06:04:25;15.25;;;3.90;;
62633;SDS011;48704;50.534;6.442;2023-04-25T06:06:50;16.80;;;4.80;;
62633;SDS011;48704;50.534;6.442;2023-04-25T06:09:16;13.63;;;3.97;;
62633;SDS011;48704;50.534;6.442;2023-04-25T06:11:41;9.10;;;3.70;;
62633;SDS011;48704;50.534;6.442;2023-04-25T06:14:06;18.02;;;3.33;;
62633;SDS011;48704;50.534;6.442;2023-04-25T06:16:32;14.20;;;4.18;;
62633;SDS011;48704;50.534;6.442;2023-04-25T06:18:57;12.57;;;3.60;;
62633;SDS011;48704;50.534;6.442;2023-04-25T06:21:23;20.50;;;3.90;;
62633;SDS011;48704;50.534;6.442;2023-04-25T06:23:48;14.75;;;4.25;;
62633;SDS011;48704;50.534;6.442;2023-04-25T06:26:14;19.70;;;4.47;;
62633;SDS011;48704;50.534;6.442;2023-04-25T06:28:39;13.00;;;3.55;;
62633;SDS011;48704;50.534;6.442;2023-04-25T06:31:04;12.50;;;3.25;;
62633;SDS011;48704;50.534;6.442;2023-04-25T06:33:29;17.00;;;3.60;;
62633;SDS011;48704;50.534;6.442;2023-04-25T06:35:55;9.70;;;3.45;;
62633;SDS011;48704;50.534;6.442;2023-04-25T06:38:23;12.38;;;5.10;;
62633;SDS011;48704;50.534;6.442;2023-04-25T06:40:48;12.45;;;3.42;;
62633;SDS011;48704;50.534;6.442;2023-04-25T06:43:14;15.93;;;3.95;;
62633;SDS011;48704;50.534;6.442;2023-04-25T06:45:39;12.60;;;3.88;;
62633;SDS011;48704;50.534;6.442;2023-04-25T06:48:05;11.35;;;3.47;;
62633;SDS011;48704;50.534;6.442;2023-04-25T06:50:30;17.77;;;3.47;;
62633;SDS011;48704;50.534;6.442;2023-04-25T06:52:55;15.13;;;3.50;;
62633;SDS011;48704;50.534;6.442;2023-04-25T06:55:21;14.63;;;4.05;;
62633;SDS011;48704;50.534;6.442;2023-04-25T06:57:46;20.23;;;3.60;;
62633;SDS011;48704;50.534;6.442;2023-04-25T07:00:11;17.17;;;4.20;;
62633;SDS011;48704;50.534;6.442;2023-04-25T07:02:37;9.30;;;4.03;;
62633;SDS011;48704;50.534;6.442;2023-04-25T07:05:03;13.73;;;3.42;;
62633;SDS011;48704;50.534;6.442;2023-04-25T07:07:29;15.40;;;4.20;;
62633;SDS011;48704;50.534;6.442;2023-04-25T07:09:55;15.25;;;4.03;;
62633;SDS011;48704;50.534;6.442;2023-04-25T07:12:20;14.02;;;4.20;;
62633;SDS011;48704;50.534;6.442;2023-04-25T07:14:46;13.43;;;4.47;;
62633;SDS011;48704;50.534;6.442;2023-04-25T07:17:11;11.40;;;4.28;;
62633;SDS011;48704;50.534;6.442;2023-04-25T07:19:36;16.75;;;3.72;;
62633;SDS011;48704;50.534;6.442;2023-04-25T07:22:03;15.23;;;4.00;;
62633;SDS011;48704;50.534;6.442;2023-04-25T07:24:29;7.88;;;3.55;;
62633;SDS011;48704;50.534;6.442;2023-04-25T07:26:54;15.68;;;4.47;;
62633;SDS011;48704;50.534;6.442;2023-04-25T07:29:19;22.10;;;4.45;;
62633;SDS011;48704;50.534;6.442;2023-04-25T07:31:44;8.75;;;3.10;;
62633;SDS011;48704;50.534;6.442;2023-04-25T07:34:10;10.70;;;3.92;;
62633;SDS011;48704;50.534;6.442;2023-04-25T07:36:35;11.60;;;3.67;;
62633;SDS011;48704;50.534;6.442;2023-04-25T07:39:00;13.38;;;4.28;;
62633;SDS011;48704;50.534;6.442;2023-04-25T07:41:25;8.48;;;2.95;;
62633;SDS011;48704;50.534;6.442;2023-04-25T07:43:51;12.25;;;3.83;;
62633;SDS011;48704;50.534;6.442;2023-04-25T07:46:16;6.68;;;3.20;;
62633;SDS011;48704;50.534;6.442;2023-04-25T07:48:41;19.15;;;3.63;;
62633;SDS011;48704;50.534;6.442;2023-04-25T07:51:06;11.55;;;3.47;;
62633;SDS011;48704;50.534;6.442;2023-04-25T07:53:32;10.35;;;3.92;;
62633;SDS011;48704;50.534;6.442;2023-04-25T07:55:59;11.65;;;3.20;;
62633;SDS011;48704;50.534;6.442;2023-04-25T07:58:24;10.50;;;4.28;;
62633;SDS011;48704;50.534;6.442;2023-04-25T08:00:50;11.70;;;3.83;;
62633;SDS011;48704;50.534;6.442;2023-04-25T08:03:15;12.18;;;4.15;;
62633;SDS011;48704;50.534;6.442;2023-04-25T08:05:40;12.05;;;4.05;;
62633;SDS011;48704;50.534;6.442;2023-04-25T08:08:06;16.30;;;4.38;;
62633;SDS011;48704;50.534;6.442;2023-04-25T08:10:32;12.02;;;3.17;;
62633;SDS011;48704;50.534;6.442;2023-04-25T08:12:57;13.45;;;4.38;;
62633;SDS011;48704;50.534;6.442;2023-04-25T08:15:23;11.93;;;3.58;;
62633;SDS011;48704;50.534;6.442;2023-04-25T08:17:49;11.85;;;3.40;;
62633;SDS011;48704;50.534;6.442;2023-04-25T08:20:14;8.73;;;2.80;;
62633;SDS011;48704;50.534;6.442;2023-04-25T08:22:39;13.05;;;3.00;;
62633;SDS011;48704;50.534;6.442;2023-04-25T08:25:05;7.43;;;2.95;;
62633;SDS011;48704;50.534;6.442;2023-04-25T08:27:30;6.75;;;2.47;;
62633;SDS011;48704;50.534;6.442;2023-04-25T08:29:56;8.93;;;2.55;;
62633;SDS011;48704;50.534;6.442;2023-04-25T08:32:21;10.65;;;2.97;;
62633;SDS011;48704;50.534;6.442;2023-04-25T08:34:46;6.50;;;2.20;;
62633;SDS011;48704;50.534;6.442;2023-04-25T08:37:12;7.95;;;3.28;;
62633;SDS011;48704;50.534;6.442;2023-04-25T08:39:37;7.40;;;2.15;;
62633;SDS011;48704;50.534;6.442;2023-04-25T08:42:04;10.82;;;2.67;;
62633;SDS011;48704;50.534;6.442;2023-04-25T08:44:34;10.23;;;2.35;;
62633;SDS011;48704;50.534;6.442;2023-04-25T08:47:01;6.18;;;2.28;;
62633;SDS011;48704;50.534;6.442;2023-04-25T08:49:28;7.47;;;2.30;;
62633;SDS011;48704;50.534;6.442;2023-04-25T08:51:54;12.20;;;2.53;;
62633;SDS011;48704;50.534;6.442;2023-04-25T08:54:27;11.50;;;2.30;;
62633;SDS011;48704;50.534;6.442;2023-04-25T08:56:54;10.65;;;2.10;;
62633;SDS011;48704;50.534;6.442;2023-04-25T08:59:22;9.07;;;2.72;;
62633;SDS011;48704;50.534;6.442;2023-04-25T09:01:48;6.95;;;2.28;;
62633;SDS011;48704;50.534;6.442;2023-04-25T09:04:14;11.88;;;2.83;;
62633;SDS011;48704;50.534;6.442;2023-04-25T09:06:40;9.68;;;2.00;;
62633;SDS011;48704;50.534;6.442;2023-04-25T09:09:05;8.55;;;2.63;;
62633;SDS011;48704;50.534;6.442;2023-04-25T09:11:33;12.27;;;2.88;;
62633;SDS011;48704;50.534;6.442;2023-04-25T09:14:10;4.35;;;1.98;;
62633;SDS011;48704;50.534;6.442;2023-04-25T09:16:59;9.82;;;2.67;;
62633;SDS011;48704;50.534;6.442;2023-04-25T09:19:31;6.30;;;1.98;;
62633;SDS011;48704;50.534;6.442;2023-04-25T09:22:00;6.63;;;2.63;;
62633;SDS011;48704;50.534;6.442;2023-04-25T09:24:43;10.23;;;2.38;;
62633;SDS011;48704;50.534;6.442;2023-04-25T09:27:11;6.90;;;2.45;;
62633;SDS011;48704;50.534;6.442;2023-04-25T09:29:38;5.35;;;2.13;;
62633;SDS011;48704;50.534;6.442;2023-04-25T09:32:18;6.65;;;2.42;;
62633;SDS011;48704;50.534;6.442;2023-04-25T09:34:49;4.45;;;1.95;;
62633;SDS011;48704;50.534;6.442;2023-04-25T09:37:20;8.18;;;2.55;;
62633;SDS011;48704;50.534;6.442;2023-04-25T09:39:50;12.85;;;2.58;;
62633;SDS011;48704;50.534;6.442;2023-04-25T09:42:21;9.52;;;2.92;;
62633;SDS011;48704;50.534;6.442;2023-04-25T09:44:48;5.15;;;2.05;;
62633;SDS011;48704;50.534;6.442;2023-04-25T09:47:16;5.53;;;2.42;;
62633;SDS011;48704;50.534;6.442;2023-04-25T09:49:42;6.15;;;2.17;;
62633;SDS011;48704;50.534;6.442;2023-04-25T09:52:09;6.90;;;2.38;;
62633;SDS011;48704;50.534;6.442;2023-04-25T09:54:39;5.13;;;2.38;;
62633;SDS011;48704;50.534;6.442;2023-04-25T09:57:09;7.47;;;2.00;;
62633;SDS011;48704;50.534;6.442;2023-04-25T09:59:37;3.85;;;1.92;;
62633;SDS011;48704;50.534;6.442;2023-04-25T10:02:04;4.60;;;1.95;;
62633;SDS011;48704;50.534;6.442;2023-04-25T10:04:31;5.40;;;2.20;;
62633;SDS011;48704;50.534;6.442;2023-04-25T10:06:59;5.43;;;1.65;;
62633;SDS011;48704;50.534;6.442;2023-04-25T10:09:26;4.03;;;1.88;;
62633;SDS011;48704;50.534;6.442;2023-04-25T10:11:56;9.00;;;2.58;;
62633;SDS011;48704;50.534;6.442;2023-04-25T10:14:23;9.70;;;2.05;;
62633;SDS011;48704;50.534;6.442;2023-04-25T10:16:49;7.03;;;2.20;;
62633;SDS011;48704;50.534;6.442;2023-04-25T10:19:18;7.00;;;2.10;;
62633;SDS011;48704;50.534;6.442;2023-04-25T10:22:07;8.38;;;2.13;;
62633;SDS011;48704;50.534;6.442;2023-04-25T10:24:35;5.03;;;1.58;;
62633;SDS011;48704;50.534;6.442;2023-04-25T10:27:02;6.07;;;1.98;;
62633;SDS011;48704;50.534;6.442;2023-04-25T10:29:27;8.88;;;1.98;;
62633;SDS011;48704;50.534;6.442;2023-04-25T10:31:53;7.30;;;2.10;;
62633;SDS011;48704;50.534;6.442;2023-04-25T10:34:19;6.20;;;2.15;;
62633;SDS011;48704;50.534;6.442;2023-04-25T10:36:49;5.63;;;2.03;;
62633;SDS011;48704;50.534;6.442;2023-04-25T10:39:24;6.95;;;1.90;;
62633;SDS011;48704;50.534;6.442;2023-04-25T10:41:53;7.18;;;1.92;;
62633;SDS011;48704;50.534;6.442;2023-04-25T10:44:21;7.93;;;2.55;;
62633;SDS011;48704;50.534;6.442;2023-04-25T10:46:46;6.22;;;2.30;;
62633;SDS011;48704;50.534;6.442;2023-04-25T10:49:27;8.50;;;2.63;;
62633;SDS011;48704;50.534;6.442;2023-04-25T10:52:11;7.70;;;2.03;;
62633;SDS011;48704;50.534;6.442;2023-04-25T10:54:51;6.22;;;2.03;;
62633;SDS011;48704;50.534;6.442;2023-04-25T10:59:57;5.78;;;2.03;;
62633;SDS011;48704;50.534;6.442;2023-04-25T11:02:30;6.57;;;2.38;;
62633;SDS011;48704;50.534;6.442;2023-04-25T11:04:55;9.23;;;2.67;;
62633;SDS011;48704;50.534;6.442;2023-04-25T11:10:08;8.02;;;2.42;;
62633;SDS011;48704;50.534;6.442;2023-04-25T11:12:33;7.93;;;2.30;;
62633;SDS011;48704;50.534;6.442;2023-04-25T11:15:03;10.77;;;2.70;;
62633;SDS011;48704;50.534;6.442;2023-04-25T11:17:30;7.75;;;3.28;;
62633;SDS011;48704;50.534;6.442;2023-04-25T11:19:55;5.95;;;2.30;;
62633;SDS011;48704;50.534;6.442;2023-04-25T11:22:21;8.02;;;2.30;;
62633;SDS011;48704;50.534;6.442;2023-04-25T11:24:47;5.32;;;2.25;;
62633;SDS011;48704;50.534;6.442;2023-04-25T11:27:12;8.73;;;2.72;;
62633;SDS011;48704;50.534;6.442;2023-04-25T11:29:38;6.45;;;2.92;;
62633;SDS011;48704;50.534;6.442;2023-04-25T11:32:03;9.88;;;3.03;;
62633;SDS011;48704;50.534;6.442;2023-04-25T11:34:29;7.60;;;2.63;;
62633;SDS011;48704;50.534;6.442;2023-04-25T11:36:56;9.32;;;3.03;;
62633;SDS011;48704;50.534;6.442;2023-04-25T11:39:23;6.38;;;2.58;;
62633;SDS011;48704;50.534;6.442;2023-04-25T11:41:49;11.40;;;2.58;;
62633;SDS011;48704;50.534;6.442;2023-04-25T11:44:15;13.20;;;2.80;;
62633;SDS011;48704;50.534;6.442;2023-04-25T11:46:42;13.45;;;2.90;;
62633;SDS011;48704;50.534;6.442;2023-04-25T11:49:07;6.20;;;2.58;;
62633;SDS011;48704;50.534;6.442;2023-04-25T11:51:40;9.93;;;3.47;;
62633;SDS011;48704;50.534;6.442;2023-04-25T11:54:06;9.30;;;3.17;;
62633;SDS011;48704;50.534;6.442;2023-04-25T11:56:31;10.35;;;3.28;;
62633;SDS011;48704;50.534;6.442;2023-04-25T11:59:04;7.68;;;3.25;;
62633;SDS011;48704;50.534;6.442;2023-04-25T12:01:32;6.80;;;3.22;;
62633;SDS011;48704;50.534;6.442;2023-04-25T12:04:09;8.07;;;3.05;;
62633;SDS011;48704;50.534;6.442;2023-04-25T12:06:39;7.40;;;3.20;;
62633;SDS011;48704;50.534;6.442;2023-04-25T12:09:07;5.85;;;2.92;;
62633;SDS011;48704;50.534;6.442;2023-04-25T12:11:52;11.93;;;4.15;;
62633;SDS011;48704;50.534;6.442;2023-04-25T12:14:22;10.15;;;3.35;;
62633;SDS011;48704;50.534;6.442;2023-04-25T12:16:55;5.00;;;2.58;;
62633;SDS011;48704;50.534;6.442;2023-04-25T12:19:23;5.82;;;3.10;;
62633;SDS011;48704;50.534;6.442;2023-04-25T12:21:48;13.80;;;3.60;;
62633;SDS011;48704;50.534;6.442;2023-04-25T12:24:15;8.98;;;3.22;;
62633;SDS011;48704;50.534;6.442;2023-04-25T12:26:47;8.15;;;3.00;;
62633;SDS011;48704;50.534;6.442;2023-04-25T12:29:24;8.13;;;3.33;;
62633;SDS011;48704;50.534;6.442;2023-04-25T12:31:51;13.32;;;3.70;;
62633;SDS011;48704;50.534;6.442;2023-04-25T12:34:17;10.02;;;4.07;;
62633;SDS011;48704;50.534;6.442;2023-04-25T12:36:46;10.05;;;3.13;;
62633;SDS011;48704;50.534;6.442;2023-04-25T12:39:16;9.38;;;3.33;;
62633;SDS011;48704;50.534;6.442;2023-04-25T12:41:42;12.23;;;3.25;;
62633;SDS011;48704;50.534;6.442;2023-04-25T12:44:09;9.38;;;3.85;;
62633;SDS011;48704;50.534;6.442;2023-04-25T12:46:35;8.65;;;3.20;;
62633;SDS011;48704;50.534;6.442;2023-04-25T12:49:00;7.40;;;3.17;;
62633;SDS011;48704;50.534;6.442;2023-04-25T12:51:26;12.52;;;3.42;;
62633;SDS011;48704;50.534;6.442;2023-04-25T12:53:52;8.68;;;3.75;;
62633;SDS011;48704;50.534;6.442;2023-04-25T12:56:18;7.15;;;3.60;;
62633;SDS011;48704;50.534;6.442;2023-04-25T12:58:43;10.52;;;4.10;;
62633;SDS011;48704;50.534;6.442;2023-04-25T13:01:09;17.08;;;4.80;;
62633;SDS011;48704;50.534;6.442;2023-04-25T13:03:34;10.70;;;4.07;;
62633;SDS011;48704;50.534;6.442;2023-04-25T13:05:59;11.55;;;4.30;;
62633;SDS011;48704;50.534;6.442;2023-04-25T13:08:25;14.02;;;4.60;;
62633;SDS011;48704;50.534;6.442;2023-04-25T13:10:51;8.95;;;3.72;;
62633;SDS011;48704;50.534;6.442;2023-04-25T13:13:16;10.95;;;4.32;;
62633;SDS011;48704;50.534;6.442;2023-04-25T13:15:42;9.35;;;4.13;;
62633;SDS011;48704;50.534;6.442;2023-04-25T13:18:07;10.95;;;4.53;;
62633;SDS011;48704;50.534;6.442;2023-04-25T13:20:32;10.65;;;3.55;;
62633;SDS011;48704;50.534;6.442;2023-04-25T13:22:58;10.30;;;3.67;;
62633;SDS011;48704;50.534;6.442;2023-04-25T13:25:23;11.85;;;4.43;;
62633;SDS011;48704;50.534;6.442;2023-04-25T13:27:48;8.75;;;4.03;;
62633;SDS011;48704;50.534;6.442;2023-04-25T13:30:14;13.15;;;4.10;;
62633;SDS011;48704;50.534;6.442;2023-04-25T13:32:39;8.20;;;3.92;;
62633;SDS011;48704;50.534;6.442;2023-04-25T13:35:07;12.93;;;3.80;;
62633;SDS011;48704;50.534;6.442;2023-04-25T13:37:34;5.53;;;2.90;;
62633;SDS011;48704;50.534;6.442;2023-04-25T13:40:00;13.45;;;3.92;;
62633;SDS011;48704;50.534;6.442;2023-04-25T13:42:28;8.10;;;2.90;;
62633;SDS011;48704;50.534;6.442;2023-04-25T13:44:54;13.02;;;3.72;;
62633;SDS011;48704;50.534;6.442;2023-04-25T13:47:20;9.70;;;3.65;;
62633;SDS011;48704;50.534;6.442;2023-04-25T13:49:45;11.70;;;3.78;;
62633;SDS011;48704;50.534;6.442;2023-04-25T13:52:10;10.13;;;3.13;;
62633;SDS011;48704;50.534;6.442;2023-04-25T13:54:35;10.73;;;3.65;;
62633;SDS011;48704;50.534;6.442;2023-04-25T13:57:01;13.88;;;3.60;;
62633;SDS011;48704;50.534;6.442;2023-04-25T13:59:27;8.85;;;3.50;;
62633;SDS011;48704;50.534;6.442;2023-04-25T14:01:52;9.35;;;3.05;;
62633;SDS011;48704;50.534;6.442;2023-04-25T14:04:17;7.15;;;2.67;;
62633;SDS011;48704;50.534;6.442;2023-04-25T14:06:42;7.78;;;3.30;;
62633;SDS011;48704;50.534;6.442;2023-04-25T14:09:08;5.43;;;1.98;;
62633;SDS011;48704;50.534;6.442;2023-04-25T14:11:36;5.55;;;2.13;;
62633;SDS011;48704;50.534;6.442;2023-04-25T14:14:01;4.43;;;1.70;;
62633;SDS011;48704;50.534;6.442;2023-04-25T14:16:26;7.40;;;2.25;;
62633;SDS011;48704;50.534;6.442;2023-04-25T14:18:52;5.88;;;1.80;;
62633;SDS011;48704;50.534;6.442;2023-04-25T14:21:19;7.63;;;2.20;;
62633;SDS011;48704;50.534;6.442;2023-04-25T14:23:45;4.15;;;2.05;;
62633;SDS011;48704;50.534;6.442;2023-04-25T14:26:11;5.25;;;2.08;;
62633;SDS011;48704;50.534;6.442;2023-04-25T14:28:37;5.25;;;1.80;;
62633;SDS011;48704;50.534;6.442;2023-04-25T14:31:02;8.30;;;2.10;;
62633;SDS011;48704;50.534;6.442;2023-04-25T14:33:28;6.30;;;1.98;;
62633;SDS011;48704;50.534;6.442;2023-04-25T14:35:53;4.07;;;1.73;;
62633;SDS011;48704;50.534;6.442;2023-04-25T14:38:18;7.10;;;2.08;;